Flight Track Log - Related Links

Times and Time Zones

All times are in EDT time to prevent confusion due to time zone crossing. See the ASQ6124 flight status page for this flight to view local times or setup timezone preferences in your user account.

Time Position Orientation Groundspeed Altitude Reporting Facility
EDT Latitude Longitude Course Direction KTS MPH feet Rate Location/Type
Fri 05:38:18 PM 38.8833 -77.4333 185° South 180 207 2,300  Level Potomac TRACON
Fri 05:39:53 PM 38.7989 -77.4561 192° South 241 277 4,700 1,781 Climbing Washington Center
Fri 05:40:00 PM 38.6711 -77.5000 180° South  Level FlightAware Approximate
Fri 05:40:53 PM 38.7278 -77.4758 192° South 248 285 6,900  Level Washington Center
Fri 05:41:00 PM 38.5821 -77.5211 191° South  Level FlightAware Approximate
Fri 05:41:51 PM 38.6522 -77.4978 193° South 266 306 8,900  Level Washington Center
Fri 05:42:00 PM 38.4927 -77.5379 185° South  Level FlightAware Approximate
Fri 05:42:52 PM 38.5908 -77.5597 218° Southwest 271 312 10,700  Level Washington Center
Fri 05:43:00 PM 38.4025 -77.5479 185° South  Level FlightAware Approximate
Fri 05:43:53 PM 38.5231 -77.6297 219° Southwest 299 344 11,300  Level Washington Center
Fri 05:44:53 PM 38.4486 -77.7072 219° Southwest 318 366 12,700 1,412 Climbing Washington Center
Fri 05:45:52 PM 38.3742 -77.7872 220° Southwest 342 394 14,100 1,261 Climbing Washington Center
Fri 05:46:52 PM 38.2956 -77.8669 219° Southwest 354 407 15,200 1,008 Climbing Washington Center
Fri 05:47:51 PM 38.2169 -77.9492 219° Southwest 364 419 16,100 958 Climbing Washington Center
Fri 05:48:51 PM 38.1358 -78.0336 219° Southwest 369 425 17,100 1,041 Climbing Washington Center
Fri 05:49:52 PM 38.0550 -78.1181 219° Southwest 374 430 18,200 1,140 Climbing Washington Center
Fri 05:50:52 PM 37.9800 -78.2078 223° Southwest 374 430 19,400 1,140 Climbing Washington Center
Fri 05:51:53 PM 37.9131 -78.3081 230° Southwest 374 430 20,500 1,008 Climbing Washington Center
Fri 05:52:51 PM 37.8419 -78.4081 228° Southwest 384 442 21,400 712 Climbing Washington Center
Fri 05:53:51 PM 37.7708 -78.5106 229° Southwest 389 448 21,900 298 Climbing Washington Center
Fri 05:54:52 PM 37.6864 -78.6306 228° Southwest 409 471 22,000 49 Climbing Washington Center
Fri 05:55:53 PM 37.6064 -78.7428 228° Southwest 425 489 22,000  Level Washington Center
Fri 05:56:53 PM 37.5222 -78.8492 225° Southwest 431 496 22,000  Level Washington Center
Fri 05:57:51 PM 37.4400 -78.9478 224° Southwest 431 496 22,000  Level Washington Center
Fri 05:58:53 PM 37.3544 -79.0275 217° Southwest 419 482 22,000  Level Washington Center
Fri 05:59:53 PM 37.2600 -79.1172 217° Southwest 424 488 22,000  Level Washington Center
Fri 06:00:51 PM 37.1656 -79.2069 217° Southwest 429 494 22,000  Level Washington Center
Fri 06:01:52 PM 37.0839 -79.2864 218° Southwest 411 473 22,000  Level Washington Center
Fri 06:02:52 PM 37.0064 -79.3581 216° Southwest 372 428 22,000  Level Washington Center
Fri 06:03:52 PM 36.9225 -79.4397 218° Southwest 356 410 22,000  Level Washington Center
Fri 06:04:53 PM 36.8450 -79.5111 216° Southwest 356 410 22,000  Level Washington Center
Fri 06:05:51 PM 36.7656 -79.5847 217° Southwest 356 410 22,000  Level Washington Center
Fri 06:08:20 PM 36.5619 -79.7742 217° Southwest 367 422 22,000  Level Atlanta Center
Fri 06:09:20 PM 36.4750 -79.8536 216° Southwest 388 447 22,000  Level Atlanta Center
Fri 06:10:20 PM 36.3922 -79.9328 218° Southwest 388 447 22,000  Level Atlanta Center
Fri 06:11:20 PM 36.3050 -80.0119 216° Southwest 388 447 22,000  Level Atlanta Center
Fri 06:12:20 PM 36.2186 -80.0472 198° South 383 441 22,000 -150 Level Atlanta Center
Fri 06:13:20 PM 36.1258 -80.0825 197° South 370 426 21,700 -850 Descending Atlanta Center
Fri 06:14:20 PM 36.0353 -80.1178 197° South 356 410 20,300 -1,750 Descending Atlanta Center
Fri 06:15:20 PM 35.9383 -80.1533 197° South 345 397 18,200 -1,650 Descending Atlanta Center
Fri 06:16:20 PM 35.8539 -80.1856 197° South 334 384 17,000 -1,055 Descending Atlanta Center
Fri 06:16:51 PM 35.8106 -80.2056 201° Southwest 321 369 16,600 -1,200 Descending Atlanta Center
Fri 06:17:20 PM 35.7694 -80.2200 196° South 322 371 15,800 -1,967 Descending Atlanta Center
Fri 06:17:52 PM 35.7242 -80.2428 202° Southwest 312 359 14,600 -2,000 Descending Atlanta Center
Fri 06:18:20 PM 35.6869 -80.2497 189° South 316 364 13,800 -1,527 Descending Atlanta Center
Fri 06:18:47 PM 35.6481 -80.2719 205° Southwest 309 356 13,200 -800 Descending Atlanta Center
Fri 06:19:20 PM 35.6169 -80.2808 193° South 316 364 13,000 -176 Descending Atlanta Center
Fri 06:19:55 PM 35.5806 -80.3158 218° Southwest 242 278 13,000  Level Atlanta Center
Fri 06:20:20 PM 35.5664 -80.3369 230° Southwest 274 315 13,000 -98 Level Atlanta Center
Fri 06:20:56 PM 35.5469 -80.3861 244° Southwest 239 275 12,900 -500 Descending Atlanta Center
Fri 06:21:20 PM 35.5375 -80.4147 248° West 246 283 12,500 -1,701 Descending Atlanta Center
Fri 06:22:03 PM 35.5144 -80.4794 246° West 253 291 11,000 -1,800 Descending Atlanta Center
Fri 06:22:20 PM 35.5064 -80.4900 227° Southwest 252 290 10,700 -1,636 Descending Atlanta Center
Fri 06:22:58 PM 35.4847 -80.5419 243° Southwest 246 283 9,500 -1,600 Descending Atlanta Center
Fri 06:23:20 PM 35.4772 -80.5703 252° West 252 290 9,100 -1,433 Descending Atlanta Center
Fri 06:24:05 PM 35.5081 -80.6253 305° West 245 282 7,900 -1,500 Descending Atlanta Center
Fri 06:24:20 PM 35.5147 -80.6428 295° West 218 251 7,600 -982 Descending Atlanta Center
Fri 06:25:00 PM 35.5531 -80.6719 328° Northwest 240 276 7,000 -600 Descending Atlanta Center
Fri 06:25:20 PM 35.5719 -80.6761 350° North 225 259 7,000 -197 Level Atlanta Center
Fri 06:26:01 PM 35.6203 -80.6869 350° North 237 273 6,800 -500 Descending Atlanta Center
Fri 06:26:20 PM 35.6314 -80.7069 304° West 220 253 6,500 -774 Descending Atlanta Center
Fri 06:27:03 PM 35.6267 -80.7683 265° West 236 272 6,000 -275 Descending Atlanta Center
Fri 06:28:09 PM 35.6228 -80.8581 267° West 227 261 6,000 -375 Level Atlanta Center
Fri 06:29:11 PM 35.6200 -80.9169 267° West 172 198 5,200 -927 Descending Atlanta Center
Fri 06:30:12 PM 35.5983 -80.9636 240° Southwest 170 196 4,100 -621 Descending Atlanta Center
Fri 06:31:07 PM 35.5592 -80.9856 205° Southwest 164 189 4,000 -52 Descending Atlanta Center
Fri 06:32:08 PM 35.5111 -80.9797 174° South 180 207 4,000  Level Atlanta Center
Fri 06:33:09 PM 35.4631 -80.9764 177° South 171 197 4,000  Level Atlanta Center
Fri 06:34:04 PM 35.4169 -80.9706 174° South 173 199 4,000 -344 Level Atlanta Center
Fri 06:35:11 PM 35.3628 -80.9700 180° South 175 201 3,300 -627 Descending Atlanta Center

Login

Don't have an account? Register now (free) for customized features, flight alerts, and more!